LFRV/VNE METAR and TAF weather

Enter ICAO airport designator
Station Type Date Time Source
LFRV METAR 2021/08/05 05:30 UTC NOAA

LFRV 050530Z AUTO 18005KT 9999 BKN008 OVC012 15/15 Q1010


Station Type Date Time Source
LFRV Decoded METAR 2021/08/05 05:30 UTC NOAA

Station name not available
Aug 05, 2021 - 01:30 AM EDT / 2021.08.05 0530 UTC
Wind: from the S (180 degrees) at 6 MPH (5 KT):0
Visibility: greater than 7 mile(s):0
Sky conditions: overcast
Temperature: 59 F (15 C)
Dew Point: 59 F (15 C)
Relative Humidity: 100%
Pressure (altimeter): 29.83 in. Hg (1010 hPa)
ob: LFRV 050530Z AUTO 18005KT 9999 BKN008 OVC012 15/15 Q1010
cycle: 5

Station Type Date Time Source
LFRV TAF UTC NOAA

Error!

Example: see airport list